sensor_id;sensor_type;location;lat;lon;timestamp;pressure;altitude;pressure_sealevel;temperature;humidity
65534;BME280;53640;55.838;37.184;2022-12-31T00:01:19;98589.66;;;-0.19;70.57
65534;BME280;53640;55.838;37.184;2022-12-31T00:03:46;98526.75;;;-0.59;70.76
65534;BME280;53640;55.838;37.184;2022-12-31T00:06:26;98541.34;;;-0.47;70.39
65534;BME280;53640;55.838;37.184;2022-12-31T00:08:55;98545.84;;;-0.48;70.62
65534;BME280;53640;55.838;37.184;2022-12-31T00:11:24;98544.16;;;-0.49;70.59
65534;BME280;53640;55.838;37.184;2022-12-31T00:13:51;98577.06;;;-0.25;70.98
65534;BME280;53640;55.838;37.184;2022-12-31T00:16:21;98535.34;;;-0.49;70.98
65534;BME280;53640;55.838;37.184;2022-12-31T00:18:50;98529.03;;;-0.56;70.72
65534;BME280;53640;55.838;37.184;2022-12-31T00:21:18;98584.72;;;-0.22;70.61
65534;BME280;53640;55.838;37.184;2022-12-31T00:23:45;98585.19;;;-0.27;70.71
65534;BME280;53640;55.838;37.184;2022-12-31T00:26:16;98546.66;;;-0.47;70.65
65534;BME280;53640;55.838;37.184;2022-12-31T00:28:43;98547.47;;;-0.47;70.46
65534;BME280;53640;55.838;37.184;2022-12-31T00:31:16;98527.72;;;-0.61;71.04
65534;BME280;53640;55.838;37.184;2022-12-31T00:33:43;98577.56;;;-0.30;70.99
65534;BME280;53640;55.838;37.184;2022-12-31T00:36:12;98539.84;;;-0.58;71.06
65534;BME280;53640;55.838;37.184;2022-12-31T00:38:41;98545.66;;;-0.54;70.91
65534;BME280;53640;55.838;37.184;2022-12-31T00:41:08;98559.28;;;-0.49;71.10
65534;BME280;53640;55.838;37.184;2022-12-31T00:43:35;98579.72;;;-0.33;71.00
65534;BME280;53640;55.838;37.184;2022-12-31T00:46:01;98524.56;;;-0.64;71.17
65534;BME280;53640;55.838;37.184;2022-12-31T00:48:28;98554.31;;;-0.44;71.09
65534;BME280;53640;55.838;37.184;2022-12-31T00:50:55;98580.88;;;-0.36;71.18
65534;BME280;53640;55.838;37.184;2022-12-31T00:53:23;98572.41;;;-0.31;71.05
65534;BME280;53640;55.838;37.184;2022-12-31T00:55:50;98554.63;;;-0.39;71.26
65534;BME280;53640;55.838;37.184;2022-12-31T00:58:16;98510.63;;;-0.66;71.01
65534;BME280;53640;55.838;37.184;2022-12-31T01:00:42;98575.56;;;-0.28;70.97
65534;BME280;53640;55.838;37.184;2022-12-31T01:03:09;98542.66;;;-0.43;71.31
65534;BME280;53640;55.838;37.184;2022-12-31T01:05:35;98569.91;;;-0.25;71.27
65534;BME280;53640;55.838;37.184;2022-12-31T01:08:04;98462.47;;;-0.88;71.13
65534;BME280;53640;55.838;37.184;2022-12-31T01:10:31;98538.34;;;-0.44;71.16
65534;BME280;53640;55.838;37.184;2022-12-31T01:13:15;98558.44;;;-0.25;71.43
65534;BME280;53640;55.838;37.184;2022-12-31T01:15:41;98569.72;;;-0.15;71.03
65534;BME280;53640;55.838;37.184;2022-12-31T01:18:08;98551.63;;;-0.28;70.84
65534;BME280;53640;55.838;37.184;2022-12-31T01:20:40;98576.72;;;-0.14;71.05
65534;BME280;53640;55.838;37.184;2022-12-31T01:23:08;98568.88;;;-0.16;70.89
65534;BME280;53640;55.838;37.184;2022-12-31T01:25:36;98571.03;;;-0.19;70.88
65534;BME280;53640;55.838;37.184;2022-12-31T01:28:04;98499.47;;;-0.62;70.59
65534;BME280;53640;55.838;37.184;2022-12-31T01:30:31;98479.91;;;-0.77;70.69
65534;BME280;53640;55.838;37.184;2022-12-31T01:32:57;98559.28;;;-0.25;70.74
65534;BME280;53640;55.838;37.184;2022-12-31T01:35:24;98554.28;;;-0.28;71.01
65534;BME280;53640;55.838;37.184;2022-12-31T01:37:50;98477.91;;;-0.75;70.83
65534;BME280;53640;55.838;37.184;2022-12-31T01:40:17;98562.91;;;-0.18;70.80
65534;BME280;53640;55.838;37.184;2022-12-31T01:42:43;98544.63;;;-0.21;70.82
65534;BME280;53640;55.838;37.184;2022-12-31T01:45:11;98561.09;;;-0.17;70.85
65534;BME280;53640;55.838;37.184;2022-12-31T01:47:45;98585.69;;;-0.07;70.82
65534;BME280;53640;55.838;37.184;2022-12-31T01:50:21;98590.00;;;-0.06;70.96
65534;BME280;53640;55.838;37.184;2022-12-31T01:52:52;98582.03;;;-0.06;70.54
65534;BME280;53640;55.838;37.184;2022-12-31T01:55:27;98540.97;;;-0.28;70.40
65534;BME280;53640;55.838;37.184;2022-12-31T01:57:58;98568.88;;;-0.16;70.42
65534;BME280;53640;55.838;37.184;2022-12-31T02:00:26;98583.19;;;-0.08;70.47
65534;BME280;53640;55.838;37.184;2022-12-31T02:02:52;98577.34;;;-0.12;70.28
65534;BME280;53640;55.838;37.184;2022-12-31T02:05:27;98565.09;;;-0.21;70.11
65534;BME280;53640;55.838;37.184;2022-12-31T02:07:56;98578.88;;;-0.18;70.62
65534;BME280;53640;55.838;37.184;2022-12-31T02:10:24;98549.63;;;-0.26;70.31
65534;BME280;53640;55.838;37.184;2022-12-31T02:12:51;98478.56;;;-0.73;70.39
65534;BME280;53640;55.838;37.184;2022-12-31T02:15:21;98558.44;;;-0.17;70.42
65534;BME280;53640;55.838;37.184;2022-12-31T02:29:14;98592.50;;;-0.13;70.03
65534;BME280;53640;55.838;37.184;2022-12-31T02:31:51;98558.78;;;-0.37;70.19
65534;BME280;53640;55.838;37.184;2022-12-31T02:34:40;98592.81;;;-0.16;70.19
65534;BME280;53640;55.838;37.184;2022-12-31T02:37:11;98565.75;;;-0.35;69.84
65534;BME280;53640;55.838;37.184;2022-12-31T02:39:40;98585.53;;;-0.30;70.03
65534;BME280;53640;55.838;37.184;2022-12-31T02:42:09;98573.06;;;-0.38;69.80
65534;BME280;53640;55.838;37.184;2022-12-31T02:44:38;98548.13;;;-0.53;70.40
65534;BME280;53640;55.838;37.184;2022-12-31T02:56:11;98594.66;;;-0.24;70.21
65534;BME280;53640;55.838;37.184;2022-12-31T02:59:05;98603.66;;;-0.25;70.43
65534;BME280;53640;55.838;37.184;2022-12-31T03:01:59;98594.00;;;-0.26;70.65
65534;BME280;53640;55.838;37.184;2022-12-31T03:04:49;98595.81;;;-0.27;70.42
65534;BME280;53640;55.838;37.184;2022-12-31T03:07:22;98556.78;;;-0.51;70.53
65534;BME280;53640;55.838;37.184;2022-12-31T03:09:49;98556.78;;;-0.51;70.70
65534;BME280;53640;55.838;37.184;2022-12-31T03:12:17;98608.47;;;-0.21;70.32
65534;BME280;53640;55.838;37.184;2022-12-31T03:15:03;98572.09;;;-0.45;70.43
65534;BME280;53640;55.838;37.184;2022-12-31T03:17:33;98610.63;;;-0.24;70.19
65534;BME280;53640;55.838;37.184;2022-12-31T03:19:59;98539.34;;;-0.70;69.97
65534;BME280;53640;55.838;37.184;2022-12-31T03:22:45;98616.78;;;-0.32;69.65
65534;BME280;53640;55.838;37.184;2022-12-31T03:25:17;98556.31;;;-0.63;70.13
65534;BME280;53640;55.838;37.184;2022-12-31T03:28:08;98611.47;;;-0.32;70.26
65534;BME280;53640;55.838;37.184;2022-12-31T03:30:37;98614.44;;;-0.35;69.99
65534;BME280;53640;55.838;37.184;2022-12-31T03:33:05;98589.84;;;-0.53;70.22
65534;BME280;53640;55.838;37.184;2022-12-31T03:35:33;98620.59;;;-0.34;69.85
65534;BME280;53640;55.838;37.184;2022-12-31T03:38:00;98590.53;;;-0.59;69.78
65534;BME280;53640;55.838;37.184;2022-12-31T03:40:28;98613.13;;;-0.47;69.98
65534;BME280;53640;55.838;37.184;2022-12-31T03:42:55;98606.63;;;-0.53;69.87
65534;BME280;53640;55.838;37.184;2022-12-31T03:45:21;98634.22;;;-0.38;70.06
65534;BME280;53640;55.838;37.184;2022-12-31T03:47:48;98619.09;;;-0.53;70.33
65534;BME280;53640;55.838;37.184;2022-12-31T03:50:16;98630.72;;;-0.46;69.95
65534;BME280;53640;55.838;37.184;2022-12-31T03:52:43;98567.72;;;-0.87;70.05
65534;BME280;53640;55.838;37.184;2022-12-31T03:55:10;98600.28;;;-0.68;69.87
65534;BME280;53640;55.838;37.184;2022-12-31T03:57:37;98585.34;;;-0.77;70.17
65534;BME280;53640;55.838;37.184;2022-12-31T04:00:06;98561.06;;;-0.91;70.22
65534;BME280;53640;55.838;37.184;2022-12-31T04:02:33;98632.06;;;-0.50;70.27
65534;BME280;53640;55.838;37.184;2022-12-31T04:04:59;98527.34;;;-1.15;69.99
65534;BME280;53640;55.838;37.184;2022-12-31T04:07:26;98508.25;;;-1.26;69.90
65534;BME280;53640;55.838;37.184;2022-12-31T04:09:52;98588.84;;;-0.77;70.02
65534;BME280;53640;55.838;37.184;2022-12-31T04:12:19;98632.69;;;-0.56;70.00
65534;BME280;53640;55.838;37.184;2022-12-31T04:14:46;98590.66;;;-0.77;70.23
65534;BME280;53640;55.838;37.184;2022-12-31T04:17:12;98631.88;;;-0.57;70.11
65534;BME280;53640;55.838;37.184;2022-12-31T04:19:40;98650.34;;;-0.47;70.58
65534;BME280;53640;55.838;37.184;2022-12-31T04:22:06;98648.19;;;-0.52;69.96
65534;BME280;53640;55.838;37.184;2022-12-31T04:24:33;98653.50;;;-0.52;70.15
65534;BME280;53640;55.838;37.184;2022-12-31T04:26:59;98639.50;;;-0.62;70.30
65534;BME280;53640;55.838;37.184;2022-12-31T04:29:25;98670.09;;;-0.50;70.16
65534;BME280;53640;55.838;37.184;2022-12-31T04:31:52;98651.47;;;-0.66;70.65
65534;BME280;53640;55.838;37.184;2022-12-31T04:34:18;98682.88;;;-0.53;70.21
65534;BME280;53640;55.838;37.184;2022-12-31T04:36:44;98699.50;;;-0.51;70.56
65534;BME280;53640;55.838;37.184;2022-12-31T04:39:11;98664.56;;;-0.73;70.55
65534;BME280;53640;55.838;37.184;2022-12-31T04:41:37;98691.16;;;-0.65;70.30
65534;BME280;53640;55.838;37.184;2022-12-31T04:44:03;98711.78;;;-0.50;70.71
65534;BME280;53640;55.838;37.184;2022-12-31T04:46:32;98713.97;;;-0.46;70.45
65534;BME280;53640;55.838;37.184;2022-12-31T04:48:59;98731.59;;;-0.45;70.52
65534;BME280;53640;55.838;37.184;2022-12-31T04:51:26;98705.97;;;-0.62;70.78
65534;BME280;53640;55.838;37.184;2022-12-31T04:53:53;98647.06;;;-1.00;70.23
65534;BME280;53640;55.838;37.184;2022-12-31T04:56:20;98683.81;;;-0.79;70.39
65534;BME280;53640;55.838;37.184;2022-12-31T04:58:47;98740.22;;;-0.43;70.73
65534;BME280;53640;55.838;37.184;2022-12-31T05:01:13;98697.78;;;-0.69;70.30
65534;BME280;53640;55.838;37.184;2022-12-31T05:03:41;98741.53;;;-0.47;70.64
65534;BME280;53640;55.838;37.184;2022-12-31T05:06:12;98718.75;;;-0.66;70.55
65534;BME280;53640;55.838;37.184;2022-12-31T05:08:39;98698.47;;;-0.75;70.33
65534;BME280;53640;55.838;37.184;2022-12-31T05:11:06;98721.72;;;-0.61;70.70
65534;BME280;53640;55.838;37.184;2022-12-31T05:13:33;98717.41;;;-0.70;70.98
65534;BME280;53640;55.838;37.184;2022-12-31T05:16:00;98716.72;;;-0.72;70.71
65534;BME280;53640;55.838;37.184;2022-12-31T05:18:26;98744.69;;;-0.59;70.83
65534;BME280;53640;55.838;37.184;2022-12-31T05:20:53;98723.72;;;-0.71;70.71
65534;BME280;53640;55.838;37.184;2022-12-31T05:23:20;98759.66;;;-0.50;70.47
65534;BME280;53640;55.838;37.184;2022-12-31T05:25:47;98750.50;;;-0.56;70.52
65534;BME280;53640;55.838;37.184;2022-12-31T05:28:14;98742.47;;;-0.64;70.89
65534;BME280;53640;55.838;37.184;2022-12-31T05:30:42;98744.47;;;-0.66;70.52
65534;BME280;53640;55.838;37.184;2022-12-31T05:33:09;98758.94;;;-0.61;70.56
65534;BME280;53640;55.838;37.184;2022-12-31T05:35:35;98752.25;;;-0.73;69.94
65534;BME280;53640;55.838;37.184;2022-12-31T05:38:01;98761.88;;;-0.72;70.65
65534;BME280;53640;55.838;37.184;2022-12-31T05:40:28;98801.88;;;-0.47;70.57
65534;BME280;53640;55.838;37.184;2022-12-31T05:42:54;98786.84;;;-0.56;70.19
65534;BME280;53640;55.838;37.184;2022-12-31T05:48:06;98766.84;;;-0.77;71.00
65534;BME280;53640;55.838;37.184;2022-12-31T05:50:32;98799.50;;;-0.58;71.00
65534;BME280;53640;55.838;37.184;2022-12-31T05:53:03;98823.34;;;-0.41;71.22
65534;BME280;53640;55.838;37.184;2022-12-31T05:55:29;98818.34;;;-0.35;71.32
65534;BME280;53640;55.838;37.184;2022-12-31T05:57:56;98791.53;;;-0.58;70.94
65534;BME280;53640;55.838;37.184;2022-12-31T06:00:22;98835.81;;;-0.33;71.04
65534;BME280;53640;55.838;37.184;2022-12-31T06:02:48;98789.88;;;-0.51;70.79
65534;BME280;53640;55.838;37.184;2022-12-31T06:05:15;98835.66;;;-0.23;71.04
65534;BME280;53640;55.838;37.184;2022-12-31T06:07:41;98804.22;;;-0.44;70.83
65534;BME280;53640;55.838;37.184;2022-12-31T06:10:07;98813.53;;;-0.40;70.72
65534;BME280;53640;55.838;37.184;2022-12-31T06:12:34;98808.84;;;-0.46;70.86
65534;BME280;53640;55.838;37.184;2022-12-31T06:15:01;98805.66;;;-0.50;70.49
65534;BME280;53640;55.838;37.184;2022-12-31T06:17:30;98848.81;;;-0.30;70.12
65534;BME280;53640;55.838;37.184;2022-12-31T06:19:58;98861.41;;;-0.32;69.97
65534;BME280;53640;55.838;37.184;2022-12-31T06:22:24;98856.38;;;-0.43;70.27
65534;BME280;53640;55.838;37.184;2022-12-31T06:24:51;98858.72;;;-0.40;70.92
65534;BME280;53640;55.838;37.184;2022-12-31T06:27:18;98873.56;;;-0.29;70.95
65534;BME280;53640;55.838;37.184;2022-12-31T06:29:45;98869.91;;;-0.28;70.85
65534;BME280;53640;55.838;37.184;2022-12-31T06:32:14;98894.38;;;-0.17;71.31
65534;BME280;53640;55.838;37.184;2022-12-31T06:34:40;98851.75;;;-0.41;70.06
65534;BME280;53640;55.838;37.184;2022-12-31T06:37:07;98849.19;;;-0.51;70.65
65534;BME280;53640;55.838;37.184;2022-12-31T06:39:33;98883.38;;;-0.30;70.59
65534;BME280;53640;55.838;37.184;2022-12-31T06:41:59;98855.19;;;-0.49;70.79
65534;BME280;53640;55.838;37.184;2022-12-31T06:44:26;98911.03;;;-0.15;70.70
65534;BME280;53640;55.838;37.184;2022-12-31T06:46:52;98909.69;;;-0.19;70.36
65534;BME280;53640;55.838;37.184;2022-12-31T06:49:18;98895.16;;;-0.32;70.33
65534;BME280;53640;55.838;37.184;2022-12-31T06:51:45;98901.31;;;-0.32;69.73
65534;BME280;53640;55.838;37.184;2022-12-31T06:54:13;98910.28;;;-0.33;70.28
65534;BME280;53640;55.838;37.184;2022-12-31T06:56:39;98915.28;;;-0.30;70.51
65534;BME280;53640;55.838;37.184;2022-12-31T06:59:23;98925.56;;;-0.27;70.10
65534;BME280;53640;55.838;37.184;2022-12-31T07:02:05;98892.41;;;-0.49;70.51
65534;BME280;53640;55.838;37.184;2022-12-31T07:18:03;98948.13;;;-0.39;70.90
65534;BME280;53640;55.838;37.184;2022-12-31T07:20:31;98942.50;;;-0.36;71.42
65534;BME280;53640;55.838;37.184;2022-12-31T07:22:58;98889.09;;;-0.77;71.13
65534;BME280;53640;55.838;37.184;2022-12-31T07:25:24;98953.78;;;-0.34;71.40
65534;BME280;53640;55.838;37.184;2022-12-31T07:31:06;98951.56;;;-0.21;71.99
65534;BME280;53640;55.838;37.184;2022-12-31T07:33:49;98959.03;;;-0.16;71.62
65534;BME280;53640;55.838;37.184;2022-12-31T07:39:12;98961.75;;;-0.08;71.22
65534;BME280;53640;55.838;37.184;2022-12-31T07:42:03;98975.41;;;-0.03;71.90
65534;BME280;53640;55.838;37.184;2022-12-31T07:47:04;98974.06;;;-0.07;71.36
65534;BME280;53640;55.838;37.184;2022-12-31T07:49:41;98968.41;;;-0.04;71.35
65534;BME280;53640;55.838;37.184;2022-12-31T07:52:08;98969.94;;;-0.01;71.39
65534;BME280;53640;55.838;37.184;2022-12-31T07:54:35;98965.09;;;-0.06;71.26
65534;BME280;53640;55.838;37.184;2022-12-31T07:57:01;98978.59;;;0.01;70.99
65534;BME280;53640;55.838;37.184;2022-12-31T08:05:28;98998.41;;;0.06;70.45
65534;BME280;53640;55.838;37.184;2022-12-31T08:08:19;99001.06;;;0.06;70.79
65534;BME280;53640;55.838;37.184;2022-12-31T08:11:07;99004.72;;;0.05;70.40
65534;BME280;53640;55.838;37.184;2022-12-31T08:13:39;98963.84;;;-0.20;70.90
65534;BME280;53640;55.838;37.184;2022-12-31T08:16:09;99013.22;;;0.09;70.90
65534;BME280;53640;55.838;37.184;2022-12-31T08:18:36;98965.19;;;-0.16;71.15
65534;BME280;53640;55.838;37.184;2022-12-31T08:26:35;99020.56;;;0.15;70.70
65534;BME280;53640;55.838;37.184;2022-12-31T08:35:55;98987.63;;;0.08;70.44
65534;BME280;53640;55.838;37.184;2022-12-31T08:38:24;98999.31;;;0.23;71.41
65534;BME280;53640;55.838;37.184;2022-12-31T08:49:10;99026.00;;;0.40;71.33
65534;BME280;53640;55.838;37.184;2022-12-31T08:51:36;99031.50;;;0.38;70.30
65534;BME280;53640;55.838;37.184;2022-12-31T08:54:03;99039.63;;;0.36;70.36
65534;BME280;53640;55.838;37.184;2022-12-31T08:56:36;99043.78;;;0.31;70.01
65534;BME280;53640;55.838;37.184;2022-12-31T08:59:35;99054.94;;;0.34;70.01
65534;BME280;53640;55.838;37.184;2022-12-31T09:02:20;99049.22;;;0.29;70.07
65534;BME280;53640;55.838;37.184;2022-12-31T09:05:15;99035.28;;;0.27;70.16
65534;BME280;53640;55.838;37.184;2022-12-31T09:17:43;99061.56;;;0.30;70.08
65534;BME280;53640;55.838;37.184;2022-12-31T09:20:21;99056.91;;;0.32;70.42
65534;BME280;53640;55.838;37.184;2022-12-31T09:22:49;99011.69;;;0.06;70.44
65534;BME280;53640;55.838;37.184;2022-12-31T09:25:17;99052.41;;;0.33;70.64
65534;BME280;53640;55.838;37.184;2022-12-31T09:31:10;99057.13;;;0.39;70.34
65534;BME280;53640;55.838;37.184;2022-12-31T09:36:43;99046.16;;;0.08;69.95
65534;BME280;53640;55.838;37.184;2022-12-31T09:39:40;99093.97;;;0.26;70.28
65534;BME280;53640;55.838;37.184;2022-12-31T09:45:18;99112.94;;;0.23;70.66
65534;BME280;53640;55.838;37.184;2022-12-31T09:56:36;99122.38;;;0.17;70.64
65534;BME280;53640;55.838;37.184;2022-12-31T10:02:29;99111.56;;;0.19;70.79
65534;BME280;53640;55.838;37.184;2022-12-31T10:13:11;99090.22;;;0.10;70.38
65534;BME280;53640;55.838;37.184;2022-12-31T10:21:52;99101.97;;;0.26;70.93
65534;BME280;53640;55.838;37.184;2022-12-31T10:24:42;99089.97;;;0.22;70.96
65534;BME280;53640;55.838;37.184;2022-12-31T10:27:32;99066.94;;;0.04;70.89
65534;BME280;53640;55.838;37.184;2022-12-31T10:30:11;99107.81;;;0.29;71.10
65534;BME280;53640;55.838;37.184;2022-12-31T10:33:15;99071.06;;;0.07;70.98
65534;BME280;53640;55.838;37.184;2022-12-31T10:35:53;99104.63;;;0.26;70.42
65534;BME280;53640;55.838;37.184;2022-12-31T10:38:46;99121.81;;;0.31;70.33
65534;BME280;53640;55.838;37.184;2022-12-31T10:45:00;99136.56;;;0.26;69.84
65534;BME280;53640;55.838;37.184;2022-12-31T10:53:45;99142.34;;;0.21;70.40
65534;BME280;53640;55.838;37.184;2022-12-31T11:04:07;99127.84;;;-0.10;70.36
65534;BME280;53640;55.838;37.184;2022-12-31T11:16:06;99154.72;;;0.04;69.90
65534;BME280;53640;55.838;37.184;2022-12-31T11:18:46;99168.56;;;0.08;70.48
65534;BME280;53640;55.838;37.184;2022-12-31T11:21:26;99173.56;;;0.11;70.39
65534;BME280;53640;55.838;37.184;2022-12-31T11:29:27;99217.34;;;0.17;69.98
65534;BME280;53640;55.838;37.184;2022-12-31T11:35:19;99130.16;;;-0.51;69.97
65534;BME280;53640;55.838;37.184;2022-12-31T11:57:38;99214.47;;;-0.08;69.92
65534;BME280;53640;55.838;37.184;2022-12-31T12:00:38;99215.63;;;-0.10;69.38
65534;BME280;53640;55.838;37.184;2022-12-31T12:03:09;99221.31;;;-0.05;69.89
65534;BME280;53640;55.838;37.184;2022-12-31T12:05:39;99179.09;;;-0.44;69.90
65534;BME280;53640;55.838;37.184;2022-12-31T12:08:45;99152.25;;;-0.51;70.42
65534;BME280;53640;55.838;37.184;2022-12-31T12:15:06;99184.31;;;-0.34;70.17
65534;BME280;53640;55.838;37.184;2022-12-31T12:17:33;99136.16;;;-0.67;70.17
65534;BME280;53640;55.838;37.184;2022-12-31T12:20:13;99147.72;;;-0.58;70.15
65534;BME280;53640;55.838;37.184;2022-12-31T12:22:52;99200.88;;;-0.23;70.49
65534;BME280;53640;55.838;37.184;2022-12-31T12:25:24;99094.38;;;-0.93;70.18
65534;BME280;53640;55.838;37.184;2022-12-31T12:27:53;99102.72;;;-0.88;70.14
65534;BME280;53640;55.838;37.184;2022-12-31T12:30:26;99140.28;;;-0.55;70.03
65534;BME280;53640;55.838;37.184;2022-12-31T12:32:58;99234.03;;;0.01;69.78
65534;BME280;53640;55.838;37.184;2022-12-31T12:35:33;99132.81;;;-0.69;70.13
65534;BME280;53640;55.838;37.184;2022-12-31T12:38:05;99199.22;;;-0.24;70.08
65534;BME280;53640;55.838;37.184;2022-12-31T12:40:33;99232.97;;;-0.06;70.07
65534;BME280;53640;55.838;37.184;2022-12-31T12:43:01;99212.66;;;-0.07;70.39
65534;BME280;53640;55.838;37.184;2022-12-31T12:45:41;99203.16;;;-0.10;70.16
65534;BME280;53640;55.838;37.184;2022-12-31T12:48:20;99174.91;;;-0.29;70.18
65534;BME280;53640;55.838;37.184;2022-12-31T12:59:47;99230.66;;;0.17;70.39
65534;BME280;53640;55.838;37.184;2022-12-31T13:05:54;99227.22;;;0.24;70.81
65534;BME280;53640;55.838;37.184;2022-12-31T13:19:54;99222.78;;;0.33;70.34
65534;BME280;53640;55.838;37.184;2022-12-31T13:22:31;99197.25;;;0.22;70.36
65534;BME280;53640;55.838;37.184;2022-12-31T13:27:40;99138.31;;;-0.09;70.45
65534;BME280;53640;55.838;37.184;2022-12-31T13:30:18;99214.50;;;0.36;69.72
65534;BME280;53640;55.838;37.184;2022-12-31T13:32:47;99237.16;;;0.40;69.87
65534;BME280;53640;55.838;37.184;2022-12-31T13:35:47;99239.69;;;0.42;69.75
65534;BME280;53640;55.838;37.184;2022-12-31T13:38:28;99130.81;;;-0.31;69.84
65534;BME280;53640;55.838;37.184;2022-12-31T13:41:25;99237.03;;;0.42;70.39
65534;BME280;53640;55.838;37.184;2022-12-31T13:44:13;99197.78;;;0.26;70.08
65534;BME280;53640;55.838;37.184;2022-12-31T13:46:47;99208.81;;;0.31;69.88
65534;BME280;53640;55.838;37.184;2022-12-31T13:49:30;99224.53;;;0.42;70.31
65534;BME280;53640;55.838;37.184;2022-12-31T13:52:27;99223.00;;;0.40;69.96
65534;BME280;53640;55.838;37.184;2022-12-31T13:55:08;99226.81;;;0.37;70.31
65534;BME280;53640;55.838;37.184;2022-12-31T13:57:53;99187.84;;;0.10;70.09
65534;BME280;53640;55.838;37.184;2022-12-31T14:00:35;99170.16;;;0.01;70.31
65534;BME280;53640;55.838;37.184;2022-12-31T14:06:13;99211.56;;;0.21;70.43
65534;BME280;53640;55.838;37.184;2022-12-31T14:08:44;99146.41;;;-0.19;70.08
65534;BME280;53640;55.838;37.184;2022-12-31T14:16:52;99218.34;;;0.16;70.69
65534;BME280;53640;55.838;37.184;2022-12-31T14:24:51;99244.22;;;0.05;70.56
65534;BME280;53640;55.838;37.184;2022-12-31T14:27:21;99218.84;;;-0.07;70.62
65534;BME280;53640;55.838;37.184;2022-12-31T14:29:56;99218.66;;;-0.05;70.62
65534;BME280;53640;55.838;37.184;2022-12-31T14:35:21;99230.38;;;0.02;70.09
65534;BME280;53640;55.838;37.184;2022-12-31T14:38:01;99179.09;;;-0.44;70.48
65534;BME280;53640;55.838;37.184;2022-12-31T14:40:53;99233.09;;;-0.08;70.70
65534;BME280;53640;55.838;37.184;2022-12-31T14:52:33;99234.41;;;-0.12;71.19
65534;BME280;53640;55.838;37.184;2022-12-31T15:07:20;99153.47;;;-0.81;70.73
65534;BME280;53640;55.838;37.184;2022-12-31T15:18:25;99231.97;;;-0.23;70.61
65534;BME280;53640;55.838;37.184;2022-12-31T15:23:42;99186.38;;;-0.46;70.73
65534;BME280;53640;55.838;37.184;2022-12-31T15:26:28;99231.19;;;-0.16;70.74
65534;BME280;53640;55.838;37.184;2022-12-31T15:29:02;99225.34;;;-0.19;70.67
65534;BME280;53640;55.838;37.184;2022-12-31T15:31:31;99172.16;;;-0.55;70.89
65534;BME280;53640;55.838;37.184;2022-12-31T15:36:34;99193.22;;;-0.26;71.14
65534;BME280;53640;55.838;37.184;2022-12-31T15:42:01;99154.16;;;-0.61;71.84
65534;BME280;53640;55.838;37.184;2022-12-31T15:47:55;99104.09;;;-0.83;70.28
65534;BME280;53640;55.838;37.184;2022-12-31T15:50:31;99080.56;;;-0.96;70.87
65534;BME280;53640;55.838;37.184;2022-12-31T15:53:05;99153.69;;;-0.56;70.78
65534;BME280;53640;55.838;37.184;2022-12-31T15:55:46;99065.84;;;-1.08;71.03
65534;BME280;53640;55.838;37.184;2022-12-31T15:58:36;99101.31;;;-0.82;70.82
65534;BME280;53640;55.838;37.184;2022-12-31T16:01:31;99126.59;;;-0.60;70.67
65534;BME280;53640;55.838;37.184;2022-12-31T16:04:20;99226.34;;;-0.02;70.82
65534;BME280;53640;55.838;37.184;2022-12-31T16:11:08;99217.22;;;-0.18;70.75
65534;BME280;53640;55.838;37.184;2022-12-31T16:14:50;99095.50;;;-0.95;70.58
65534;BME280;53640;55.838;37.184;2022-12-31T16:17:55;99226.28;;;-0.10;70.80
65534;BME280;53640;55.838;37.184;2022-12-31T16:20:56;99030.25;;;-1.16;70.70
65534;BME280;53640;55.838;37.184;2022-12-31T16:27:42;99158.94;;;-0.47;70.76
65534;BME280;53640;55.838;37.184;2022-12-31T16:31:52;99095.28;;;-0.84;70.56
65534;BME280;53640;55.838;37.184;2022-12-31T16:36:00;99160.47;;;-0.62;71.01
65534;BME280;53640;55.838;37.184;2022-12-31T16:39:01;99200.81;;;-0.31;70.41
65534;BME280;53640;55.838;37.184;2022-12-31T16:42:45;99190.31;;;-0.50;70.08
65534;BME280;53640;55.838;37.184;2022-12-31T16:45:27;99032.09;;;-1.44;70.73
65534;BME280;53640;55.838;37.184;2022-12-31T16:48:14;99198.78;;;-0.37;70.70
65534;BME280;53640;55.838;37.184;2022-12-31T16:51:32;99031.22;;;-1.35;70.57
65534;BME280;53640;55.838;37.184;2022-12-31T16:54:35;99187.50;;;-0.31;70.85
65534;BME280;53640;55.838;37.184;2022-12-31T16:57:04;99181.53;;;-0.33;70.18
65534;BME280;53640;55.838;37.184;2022-12-31T16:59:42;99084.75;;;-0.94;70.50
65534;BME280;53640;55.838;37.184;2022-12-31T17:02:42;99073.47;;;-1.05;70.91
65534;BME280;53640;55.838;37.184;2022-12-31T17:05:22;99178.38;;;-0.46;70.51
65534;BME280;53640;55.838;37.184;2022-12-31T17:07:49;99165.25;;;-0.48;70.66
65534;BME280;53640;55.838;37.184;2022-12-31T17:10:34;99135.84;;;-0.64;70.23
65534;BME280;53640;55.838;37.184;2022-12-31T17:13:20;99071.03;;;-1.17;70.49
65534;BME280;53640;55.838;37.184;2022-12-31T17:15:47;99152.25;;;-0.69;70.39
65534;BME280;53640;55.838;37.184;2022-12-31T17:18:29;99149.00;;;-0.63;70.55
65534;BME280;53640;55.838;37.184;2022-12-31T17:21:07;99123.78;;;-0.76;70.43
65534;BME280;53640;55.838;37.184;2022-12-31T17:23:36;99079.72;;;-1.15;70.41
65534;BME280;53640;55.838;37.184;2022-12-31T17:26:12;99149.13;;;-0.64;70.50
65534;BME280;53640;55.838;37.184;2022-12-31T17:28:45;99096.44;;;-1.04;70.17
65534;BME280;53640;55.838;37.184;2022-12-31T17:32:34;99153.00;;;-0.76;70.40
65534;BME280;53640;55.838;37.184;2022-12-31T17:34:48;99141.47;;;-0.85;70.46
65534;BME280;53640;55.838;37.184;2022-12-31T17:37:16;99152.22;;;-0.87;71.07
65534;BME280;53640;55.838;37.184;2022-12-31T17:42:12;99053.19;;;-1.42;70.47
65534;BME280;53640;55.838;37.184;2022-12-31T17:44:42;99089.84;;;-1.28;70.60
65534;BME280;53640;55.838;37.184;2022-12-31T17:47:13;99116.59;;;-1.12;70.94
65534;BME280;53640;55.838;37.184;2022-12-31T17:49:44;99124.72;;;-0.95;70.88
65534;BME280;53640;55.838;37.184;2022-12-31T17:52:12;99087.69;;;-1.15;70.72
65534;BME280;53640;55.838;37.184;2022-12-31T17:54:43;99024.78;;;-1.60;70.92
65534;BME280;53640;55.838;37.184;2022-12-31T17:57:23;99096.44;;;-1.04;71.35
65534;BME280;53640;55.838;37.184;2022-12-31T17:59:52;99018.88;;;-1.53;71.46
65534;BME280;53640;55.838;37.184;2022-12-31T18:02:21;99087.50;;;-1.13;71.07